createdAt,value
2023-01-18T00:01:22.274Z,13.00
2023-01-18T00:03:50.435Z,14.40
2023-01-18T00:06:18.661Z,20.70
2023-01-18T00:08:46.820Z,18.00
2023-01-18T00:11:17.148Z,15.50
2023-01-18T00:13:45.642Z,17.10
2023-01-18T00:16:16.234Z,9.90
2023-01-18T00:18:50.866Z,10.90
2023-01-18T00:21:19.020Z,12.30
2023-01-18T00:23:47.064Z,13.90
2023-01-18T00:26:15.330Z,13.10
2023-01-18T00:28:43.670Z,16.90
2023-01-18T00:31:16.847Z,13.30
2023-01-18T00:33:49.907Z,12.50
2023-01-18T00:36:18.777Z,14.20
2023-01-18T00:38:52.148Z,19.00
2023-01-18T00:41:21.817Z,18.00
2023-01-18T00:43:54.051Z,16.30
2023-01-18T00:46:27.356Z,15.00
2023-01-18T00:48:57.340Z,14.40
2023-01-18T00:51:25.681Z,14.20
2023-01-18T00:53:54.021Z,13.50
2023-01-18T00:56:23.300Z,15.60
2023-01-18T00:58:51.545Z,12.30
2023-01-18T01:01:19.941Z,11.80
2023-01-18T01:04:06.892Z,9.20
2023-01-18T01:06:45.166Z,13.20
2023-01-18T01:09:20.168Z,11.70
2023-01-18T01:12:07.716Z,12.60
2023-01-18T01:14:58.555Z,9.20
2023-01-18T01:17:47.992Z,10.70
2023-01-18T01:20:35.130Z,15.70
2023-01-18T01:23:33.897Z,10.40
2023-01-18T01:26:06.408Z,12.50
2023-01-18T01:28:41.813Z,10.50
2023-01-18T01:31:14.557Z,8.10
2023-01-18T01:33:43.312Z,7.70
2023-01-18T01:36:15.881Z,8.40
2023-01-18T01:38:44.456Z,9.60
2023-01-18T01:41:25.452Z,14.70
2023-01-18T01:43:58.773Z,9.90
2023-01-18T01:46:59.774Z,8.30
2023-01-18T01:49:40.226Z,11.70
2023-01-18T01:52:11.344Z,10.50
2023-01-18T01:54:45.628Z,12.00
2023-01-18T01:57:16.243Z,13.50
2023-01-18T01:59:52.340Z,11.50
2023-01-18T02:02:20.726Z,12.20
2023-01-18T02:04:53.913Z,14.00
2023-01-18T02:07:23.699Z,15.20
2023-01-18T02:09:53.788Z,12.50
2023-01-18T02:12:27.184Z,15.00
2023-01-18T02:15:00.277Z,12.70
2023-01-18T02:17:47.229Z,11.50
2023-01-18T02:20:55.800Z,14.70
2023-01-18T02:23:46.667Z,16.90
2023-01-18T02:26:54.303Z,16.80
2023-01-18T02:29:26.954Z,13.40
2023-01-18T02:32:00.969Z,10.60
2023-01-18T02:34:38.767Z,11.70
2023-01-18T02:37:48.734Z,15.60
2023-01-18T02:40:23.065Z,13.40
2023-01-18T02:43:14.223Z,13.40
2023-01-18T02:46:07.699Z,14.00
2023-01-18T02:48:39.197Z,13.90
2023-01-18T02:51:10.888Z,12.90
2023-01-18T02:53:43.292Z,17.40
2023-01-18T02:56:17.075Z,11.40
2023-01-18T02:58:49.477Z,12.80
2023-01-18T03:01:27.214Z,13.70
2023-01-18T03:04:01.592Z,9.10
2023-01-18T03:06:30.221Z,15.20
2023-01-18T03:09:03.282Z,12.50
2023-01-18T03:11:45.704Z,12.50
2023-01-18T03:14:32.753Z,14.10
2023-01-18T03:17:12.111Z,15.60
2023-01-18T03:20:09.593Z,12.50
2023-01-18T03:23:02.357Z,13.50
2023-01-18T03:25:37.863Z,15.00
2023-01-18T03:28:29.607Z,14.30
2023-01-18T03:31:19.812Z,15.00
2023-01-18T03:33:59.367Z,11.80
2023-01-18T03:36:32.279Z,14.00
2023-01-18T03:39:05.368Z,12.60
2023-01-18T03:41:39.354Z,15.40
2023-01-18T03:44:29.640Z,11.90
2023-01-18T03:46:58.180Z,15.20
2023-01-18T03:49:27.611Z,13.20
2023-01-18T03:52:20.029Z,13.30
2023-01-18T03:55:02.406Z,13.40
2023-01-18T03:57:38.779Z,13.50
2023-01-18T04:00:09.427Z,13.90
2023-01-18T04:02:45.252Z,13.60
2023-01-18T04:05:13.717Z,14.90
2023-01-18T04:07:42.412Z,15.20
2023-01-18T04:10:11.481Z,16.50
2023-01-18T04:12:39.775Z,21.10
2023-01-18T04:15:08.327Z,22.40
2023-01-18T04:17:36.431Z,17.70
2023-01-18T04:20:04.942Z,17.50
2023-01-18T04:22:33.241Z,18.70
2023-01-18T04:25:01.517Z,17.40
2023-01-18T04:27:29.688Z,21.10
2023-01-18T04:29:58.728Z,29.40
2023-01-18T04:32:28.934Z,68.20
2023-01-18T04:34:57.413Z,25.90
2023-01-18T04:37:31.134Z,22.50
2023-01-18T04:39:59.273Z,24.10
2023-01-18T04:42:30.574Z,29.50
2023-01-18T04:44:59.995Z,25.70
2023-01-18T04:47:29.195Z,23.10
2023-01-18T04:50:01.098Z,23.70
2023-01-18T04:52:32.367Z,23.60
2023-01-18T04:55:00.496Z,25.30
2023-01-18T04:57:29.040Z,29.50
2023-01-18T04:59:57.314Z,24.80
2023-01-18T05:02:25.488Z,22.00
2023-01-18T05:04:53.851Z,20.50
2023-01-18T05:07:25.284Z,23.90
2023-01-18T05:09:58.549Z,29.80
2023-01-18T05:12:28.584Z,24.60
2023-01-18T05:14:57.142Z,31.50
2023-01-18T05:17:30.506Z,41.80
2023-01-18T05:19:58.623Z,33.30
2023-01-18T05:22:28.236Z,41.80
2023-01-18T05:24:56.383Z,52.00
2023-01-18T05:27:24.750Z,37.70
2023-01-18T05:29:52.916Z,41.70
2023-01-18T05:32:20.985Z,46.40
2023-01-18T05:34:49.635Z,51.10
2023-01-18T05:37:20.231Z,56.60
2023-01-18T05:39:48.424Z,53.00
2023-01-18T05:42:19.890Z,54.00
2023-01-18T05:44:47.964Z,58.60
2023-01-18T05:47:16.245Z,44.40
2023-01-18T05:49:44.267Z,37.60
2023-01-18T05:52:15.139Z,28.90
2023-01-18T05:54:46.152Z,31.20
2023-01-18T05:57:14.543Z,44.20
2023-01-18T05:59:42.755Z,45.20
2023-01-18T06:02:11.154Z,37.60
2023-01-18T06:04:39.472Z,44.80
2023-01-18T06:07:09.414Z,43.70
2023-01-18T06:09:37.793Z,34.60
2023-01-18T06:12:06.339Z,32.70
2023-01-18T06:14:34.536Z,33.90
2023-01-18T06:17:02.822Z,34.80
2023-01-18T06:19:33.371Z,42.10
2023-01-18T06:22:04.592Z,39.80
2023-01-18T06:24:32.829Z,36.70
2023-01-18T06:27:03.198Z,38.20
2023-01-18T06:29:31.520Z,37.50
2023-01-18T06:31:59.747Z,29.90
2023-01-18T06:34:30.195Z,24.20
2023-01-18T06:36:58.670Z,30.50
2023-01-18T06:39:26.742Z,26.50
2023-01-18T06:41:55.166Z,30.00
2023-01-18T06:44:23.485Z,43.30
2023-01-18T06:46:52.276Z,32.70
2023-01-18T06:49:20.414Z,25.40
2023-01-18T06:51:51.425Z,35.10
2023-01-18T06:54:21.780Z,42.00
2023-01-18T06:56:49.869Z,53.30
2023-01-18T06:59:18.132Z,41.00
2023-01-18T07:01:47.031Z,39.30
2023-01-18T07:04:18.370Z,28.80
2023-01-18T07:06:46.698Z,29.20
2023-01-18T07:09:14.982Z,26.20
2023-01-18T07:11:43.368Z,48.10
2023-01-18T07:14:12.452Z,39.80
2023-01-18T07:16:41.292Z,37.40
2023-01-18T07:19:09.820Z,39.90
2023-01-18T07:21:41.211Z,44.50
2023-01-18T07:24:09.436Z,25.90
2023-01-18T07:26:37.705Z,32.90
2023-01-18T07:29:06.006Z,34.00
2023-01-18T07:31:34.124Z,27.20
2023-01-18T07:34:02.478Z,27.50
2023-01-18T07:36:30.661Z,25.80
2023-01-18T07:39:01.275Z,23.30
2023-01-18T07:41:31.005Z,27.90
2023-01-18T07:43:59.925Z,25.70
2023-01-18T07:46:28.181Z,22.50
2023-01-18T07:48:58.951Z,30.40
2023-01-18T07:51:30.727Z,27.60
2023-01-18T07:53:58.969Z,26.30
2023-01-18T07:56:27.308Z,58.00
2023-01-18T07:58:55.849Z,101.20
2023-01-18T08:01:24.421Z,203.70
2023-01-18T08:03:54.786Z,58.80
2023-01-18T08:06:25.304Z,39.20
2023-01-18T08:08:57.225Z,31.60
2023-01-18T08:11:25.757Z,28.50
2023-01-18T08:13:53.953Z,22.20
2023-01-18T08:16:22.333Z,20.70
2023-01-18T08:18:51.501Z,21.90
2023-01-18T08:21:19.615Z,18.40
2023-01-18T08:23:47.722Z,23.80
2023-01-18T08:26:16.070Z,26.70
2023-01-18T08:28:44.903Z,31.50
2023-01-18T08:31:19.759Z,41.00
2023-01-18T08:33:50.021Z,31.40
2023-01-18T08:36:21.081Z,27.10
2023-01-18T08:38:55.351Z,27.00
2023-01-18T08:41:28.481Z,22.60
2023-01-18T08:43:58.442Z,24.80
2023-01-18T08:46:26.627Z,28.20
2023-01-18T08:48:57.879Z,25.10
2023-01-18T08:51:26.232Z,23.00
2023-01-18T08:53:56.723Z,22.70
2023-01-18T08:56:31.335Z,19.30
2023-01-18T08:59:00.199Z,12.50
2023-01-18T09:01:31.001Z,13.50
2023-01-18T09:03:59.233Z,24.50
2023-01-18T09:06:32.144Z,21.20
2023-01-18T09:09:01.257Z,24.10
2023-01-18T09:11:29.319Z,27.60
2023-01-18T09:14:02.204Z,16.50
2023-01-18T09:16:31.839Z,18.50
2023-01-18T09:19:06.353Z,17.30
2023-01-18T09:21:34.881Z,16.90
2023-01-18T09:24:03.028Z,14.40
2023-01-18T09:26:31.292Z,11.80
2023-01-18T09:28:59.655Z,15.30
2023-01-18T09:31:28.699Z,21.80
2023-01-18T09:34:09.583Z,19.40
2023-01-18T09:36:46.528Z,18.30
2023-01-18T09:39:14.739Z,22.70
2023-01-18T09:41:47.017Z,19.30
2023-01-18T09:44:25.098Z,20.40
2023-01-18T09:47:03.109Z,39.40
2023-01-18T09:50:06.027Z,41.40
2023-01-18T09:53:04.277Z,40.10
2023-01-18T09:55:46.451Z,34.00
2023-01-18T09:58:27.147Z,31.70
2023-01-18T10:01:05.604Z,26.00
2023-01-18T10:04:06.666Z,30.70
2023-01-18T10:06:46.922Z,19.00
2023-01-18T10:09:18.300Z,19.60
2023-01-18T10:11:51.168Z,18.00
2023-01-18T10:14:38.528Z,15.40
2023-01-18T10:17:21.242Z,21.40
2023-01-18T10:19:50.961Z,30.40
2023-01-18T10:22:25.730Z,28.70
2023-01-18T10:25:14.705Z,26.30
2023-01-18T10:28:04.378Z,24.70
2023-01-18T10:31:04.094Z,36.50
2023-01-18T10:33:41.012Z,29.00
2023-01-18T10:36:12.482Z,29.20
2023-01-18T10:38:41.434Z,27.90
2023-01-18T10:41:20.216Z,27.80
2023-01-18T10:43:50.544Z,18.10
2023-01-18T10:46:21.772Z,33.90
2023-01-18T10:48:52.481Z,38.10
2023-01-18T10:51:35.296Z,39.20
2023-01-18T10:54:25.880Z,32.00
2023-01-18T10:57:05.705Z,26.10
2023-01-18T10:59:39.970Z,24.50
2023-01-18T11:02:23.585Z,25.90
2023-01-18T11:07:28.016Z,18.90
2023-01-18T11:09:59.573Z,16.20
2023-01-18T11:12:44.368Z,14.60
2023-01-18T11:15:15.400Z,16.40
2023-01-18T11:18:00.837Z,9.00
2023-01-18T11:20:41.031Z,4.80
2023-01-18T11:23:14.889Z,2.50
2023-01-18T11:26:00.839Z,1.40
2023-01-18T11:29:06.683Z,1.90
2023-01-18T11:31:48.579Z,1.10
2023-01-18T11:34:32.214Z,1.20
2023-01-18T11:37:01.548Z,1.20
2023-01-18T11:39:35.423Z,1.80
2023-01-18T11:42:31.826Z,4.20
2023-01-18T11:45:23.725Z,1.40
2023-01-18T11:47:51.958Z,2.50
2023-01-18T11:50:38.522Z,3.80
2023-01-18T11:53:30.918Z,3.00
2023-01-18T11:56:06.819Z,3.60
2023-01-18T11:58:36.148Z,1.80
2023-01-18T12:01:25.914Z,1.60
2023-01-18T12:04:13.969Z,2.90
2023-01-18T12:06:54.776Z,3.40
2023-01-18T12:09:25.680Z,1.80
2023-01-18T12:12:17.348Z,2.60
2023-01-18T12:15:04.811Z,1.30
2023-01-18T12:18:07.786Z,2.80
2023-01-18T12:21:09.314Z,4.00
2023-01-18T12:23:57.488Z,4.90
2023-01-18T12:26:45.826Z,3.90
2023-01-18T12:29:49.056Z,2.50
2023-01-18T12:32:50.424Z,5.40
2023-01-18T12:35:32.497Z,4.10
2023-01-18T12:38:13.649Z,3.10
2023-01-18T12:41:11.246Z,3.30
2023-01-18T12:44:00.515Z,4.80
2023-01-18T12:46:34.540Z,5.50
2023-01-18T12:49:19.073Z,5.50
2023-01-18T12:51:54.296Z,3.90
2023-01-18T12:54:43.318Z,8.10
2023-01-18T12:57:13.833Z,4.80
2023-01-18T12:59:47.655Z,3.60
2023-01-18T13:02:35.293Z,2.70
2023-01-18T13:05:33.937Z,2.90
2023-01-18T13:08:16.990Z,5.80
2023-01-18T13:10:46.200Z,5.80
2023-01-18T13:13:28.961Z,4.30
2023-01-18T13:16:10.141Z,3.20
2023-01-18T13:19:03.801Z,8.00
2023-01-18T13:21:38.594Z,5.00
2023-01-18T13:24:41.463Z,4.50
2023-01-18T13:27:12.836Z,2.20
2023-01-18T13:29:42.791Z,3.40
2023-01-18T13:32:37.941Z,5.20
2023-01-18T13:35:25.841Z,6.50
2023-01-18T13:38:02.160Z,4.90
2023-01-18T13:40:43.837Z,5.60
2023-01-18T13:43:32.841Z,4.70
2023-01-18T13:46:10.359Z,3.00
2023-01-18T13:48:51.067Z,6.10
2023-01-18T13:51:39.716Z,3.20
2023-01-18T13:54:15.431Z,5.10
2023-01-18T13:57:24.694Z,6.20
2023-01-18T13:59:58.637Z,5.10
2023-01-18T14:02:34.487Z,6.60
2023-01-18T14:05:32.297Z,7.20
2023-01-18T14:08:02.479Z,7.60
2023-01-18T14:10:36.625Z,6.80
2023-01-18T14:13:14.233Z,6.70
2023-01-18T14:15:53.922Z,10.20
2023-01-18T14:18:25.288Z,7.10
2023-01-18T14:21:19.677Z,6.70
2023-01-18T14:24:09.221Z,6.40
2023-01-18T14:26:40.282Z,5.90
2023-01-18T14:29:33.960Z,6.70
2023-01-18T14:32:08.143Z,7.00
2023-01-18T14:34:44.854Z,7.00
2023-01-18T14:37:33.792Z,6.80
2023-01-18T14:40:04.512Z,7.90
2023-01-18T14:42:35.043Z,6.50
2023-01-18T14:45:04.867Z,5.90
2023-01-18T14:47:34.692Z,7.40
2023-01-18T14:50:07.706Z,10.50
2023-01-18T14:52:37.369Z,7.60
2023-01-18T14:55:07.446Z,9.00
2023-01-18T14:57:35.668Z,12.80
2023-01-18T15:00:24.978Z,13.00
2023-01-18T15:02:53.887Z,11.50
2023-01-18T15:05:29.097Z,16.00
2023-01-18T15:07:59.361Z,18.40
2023-01-18T15:10:27.749Z,14.30
2023-01-18T15:12:59.134Z,14.90
2023-01-18T15:15:33.317Z,17.00
2023-01-18T15:18:15.488Z,17.50
2023-01-18T15:20:57.316Z,17.30
2023-01-18T15:23:27.162Z,19.10
2023-01-18T15:25:56.751Z,18.90
2023-01-18T15:28:36.477Z,21.40
2023-01-18T15:31:16.258Z,34.80
2023-01-18T15:33:44.940Z,27.00
2023-01-18T15:36:14.191Z,26.50
2023-01-18T15:38:42.447Z,21.70
2023-01-18T15:41:14.849Z,23.90
2023-01-18T15:43:44.982Z,12.80
2023-01-18T15:46:16.228Z,16.40
2023-01-18T15:48:51.627Z,17.60
2023-01-18T15:51:43.302Z,15.60
2023-01-18T15:54:19.405Z,14.60
2023-01-18T15:56:48.684Z,16.50
2023-01-18T15:59:22.862Z,17.10
2023-01-18T16:02:13.673Z,28.50
2023-01-18T16:04:42.138Z,19.10
2023-01-18T16:07:25.907Z,13.40
2023-01-18T16:10:31.196Z,13.90
2023-01-18T16:13:36.831Z,9.30
2023-01-18T16:16:14.097Z,11.70
2023-01-18T16:19:07.489Z,14.60
2023-01-18T16:21:42.722Z,9.10
2023-01-18T16:24:26.432Z,9.90
2023-01-18T16:26:55.448Z,7.90
2023-01-18T16:29:23.752Z,7.00
2023-01-18T16:31:52.099Z,10.20
2023-01-18T16:34:24.211Z,9.10
2023-01-18T16:36:54.760Z,10.70
2023-01-18T16:39:24.576Z,14.30
2023-01-18T16:41:57.385Z,13.10
2023-01-18T16:44:26.244Z,15.00
2023-01-18T16:46:54.491Z,18.20
2023-01-18T16:49:22.597Z,17.00
2023-01-18T16:51:50.774Z,16.20
2023-01-18T16:54:19.606Z,15.20
2023-01-18T16:56:48.714Z,15.80
2023-01-18T16:59:45.028Z,14.30
2023-01-18T17:02:55.374Z,26.40
2023-01-18T17:05:23.561Z,36.50
2023-01-18T17:07:54.688Z,35.00
2023-01-18T17:10:40.610Z,34.20
2023-01-18T17:13:08.855Z,34.30
2023-01-18T17:15:41.488Z,21.40
2023-01-18T17:18:27.957Z,27.60
2023-01-18T17:20:56.494Z,23.90
2023-01-18T17:23:25.778Z,23.30
2023-01-18T17:26:00.599Z,30.70
2023-01-18T17:28:32.630Z,34.80
2023-01-18T17:31:01.517Z,29.60
2023-01-18T17:33:30.702Z,28.40
2023-01-18T17:35:59.198Z,37.60
2023-01-18T17:40:58.936Z,31.70
2023-01-18T17:43:34.947Z,31.10
2023-01-18T17:46:07.143Z,31.50
2023-01-18T17:48:35.482Z,28.50
2023-01-18T17:51:12.063Z,36.90
2023-01-18T17:53:41.413Z,40.80
2023-01-18T17:56:18.937Z,44.30
2023-01-18T17:58:49.319Z,50.10
2023-01-18T18:01:18.541Z,45.60
2023-01-18T18:03:51.354Z,41.50
2023-01-18T18:06:30.546Z,39.70
2023-01-18T18:09:03.639Z,46.80
2023-01-18T18:11:35.074Z,38.50
2023-01-18T18:14:03.314Z,31.00
2023-01-18T18:16:32.811Z,37.50
2023-01-18T18:19:09.085Z,42.90
2023-01-18T18:21:37.290Z,41.80
2023-01-18T18:24:05.716Z,36.70
2023-01-18T18:26:34.524Z,41.00
2023-01-18T18:29:03.186Z,48.70
2023-01-18T18:31:31.781Z,39.70
2023-01-18T18:34:00.439Z,44.40
2023-01-18T18:36:28.819Z,48.80
2023-01-18T18:39:01.461Z,43.80
2023-01-18T18:41:29.804Z,55.60
2023-01-18T18:43:57.954Z,33.00
2023-01-18T18:46:31.335Z,36.90
2023-01-18T18:48:59.593Z,32.20
2023-01-18T18:51:27.929Z,39.80
2023-01-18T18:53:56.575Z,47.20
2023-01-18T18:56:24.958Z,58.50
2023-01-18T18:58:53.280Z,58.80
2023-01-18T19:01:29.766Z,51.80
2023-01-18T19:03:59.097Z,47.20
2023-01-18T19:06:27.899Z,47.30
2023-01-18T19:08:57.337Z,47.00
2023-01-18T19:11:31.196Z,46.80
2023-01-18T19:13:59.557Z,46.80
2023-01-18T19:16:27.895Z,45.80
2023-01-18T19:18:56.065Z,50.40
2023-01-18T19:21:24.227Z,49.80
2023-01-18T19:23:52.321Z,39.10
2023-01-18T19:26:23.210Z,45.30
2023-01-18T19:28:51.896Z,52.50
2023-01-18T19:31:20.085Z,54.80
2023-01-18T19:33:48.355Z,49.40
2023-01-18T19:36:16.921Z,51.30
2023-01-18T19:38:52.678Z,60.20
2023-01-18T19:41:25.949Z,43.90
2023-01-18T19:43:54.124Z,33.70
2023-01-18T19:46:22.458Z,29.10
2023-01-18T19:48:56.192Z,28.10
2023-01-18T19:53:53.631Z,23.20
2023-01-18T19:56:25.774Z,25.20
2023-01-18T19:58:57.347Z,20.50
2023-01-18T20:01:36.276Z,18.20
2023-01-18T20:04:06.699Z,20.50
2023-01-18T20:06:37.555Z,19.30
2023-01-18T20:09:17.836Z,25.80
2023-01-18T20:11:47.310Z,25.50
2023-01-18T20:14:15.845Z,24.60
2023-01-18T20:16:46.175Z,30.40
2023-01-18T20:19:15.536Z,26.70
2023-01-18T20:21:43.746Z,27.90
2023-01-18T20:24:11.924Z,26.20
2023-01-18T20:26:41.726Z,29.20
2023-01-18T20:29:10.190Z,23.20
2023-01-18T20:31:39.404Z,18.60
2023-01-18T20:34:10.998Z,15.20
2023-01-18T20:36:39.127Z,18.40
2023-01-18T20:39:10.526Z,12.80
2023-01-18T20:41:38.732Z,14.90
2023-01-18T20:44:07.183Z,12.10
2023-01-18T20:46:35.747Z,16.20
2023-01-18T20:49:04.786Z,16.10
2023-01-18T20:51:33.616Z,16.30
2023-01-18T20:54:02.291Z,15.50
2023-01-18T20:56:32.022Z,16.20
2023-01-18T20:59:00.192Z,16.10
2023-01-18T21:01:37.415Z,16.80
2023-01-18T21:04:05.833Z,23.80
2023-01-18T21:06:34.420Z,19.30
2023-01-18T21:09:02.856Z,15.90
2023-01-18T21:11:31.820Z,12.40
2023-01-18T21:13:59.990Z,14.40
2023-01-18T21:16:28.418Z,18.00
2023-01-18T21:18:59.236Z,17.30
2023-01-18T21:21:31.998Z,16.10
2023-01-18T21:24:00.242Z,13.40
2023-01-18T21:26:29.107Z,15.70
2023-01-18T21:28:57.247Z,15.00
2023-01-18T21:31:25.294Z,13.50
2023-01-18T21:33:54.287Z,13.00
2023-01-18T21:36:23.180Z,15.60
2023-01-18T21:38:51.549Z,15.60
2023-01-18T21:41:38.404Z,13.20
2023-01-18T21:44:30.289Z,17.70
2023-01-18T21:47:01.659Z,14.20
2023-01-18T21:52:57.906Z,75.50
2023-01-18T21:55:29.228Z,28.10
2023-01-18T21:58:15.916Z,22.70
2023-01-18T22:00:44.161Z,17.60
2023-01-18T22:03:15.338Z,30.60
2023-01-18T22:05:46.724Z,25.90
2023-01-18T22:08:14.941Z,26.50
2023-01-18T22:10:47.655Z,24.60
2023-01-18T22:13:18.075Z,24.10
2023-01-18T22:15:49.145Z,24.00
2023-01-18T22:18:17.338Z,26.20
2023-01-18T22:20:55.227Z,22.80
2023-01-18T22:23:23.362Z,22.80
2023-01-18T22:25:55.390Z,24.00
2023-01-18T22:28:26.231Z,25.90
2023-01-18T22:30:54.666Z,23.40
2023-01-18T22:33:22.860Z,28.70
2023-01-18T22:35:57.444Z,22.10
2023-01-18T22:38:25.848Z,26.30
2023-01-18T22:41:13.951Z,23.10
2023-01-18T22:43:42.873Z,26.50
2023-01-18T22:46:14.220Z,30.40
2023-01-18T22:48:43.676Z,21.90
2023-01-18T22:51:17.246Z,20.90
2023-01-18T22:53:49.544Z,23.30
2023-01-18T22:56:20.879Z,22.60
2023-01-18T22:58:50.203Z,28.20
2023-01-18T23:01:27.142Z,20.80
2023-01-18T23:06:24.626Z,21.10
2023-01-18T23:08:54.362Z,18.40
2023-01-18T23:11:25.311Z,20.30
2023-01-18T23:14:14.628Z,21.40
2023-01-18T23:17:02.735Z,20.50
2023-01-18T23:19:31.244Z,22.30
2023-01-18T23:21:59.915Z,23.90
2023-01-18T23:24:28.103Z,22.60
2023-01-18T23:26:56.281Z,23.30
2023-01-18T23:29:24.358Z,24.40
2023-01-18T23:31:52.463Z,24.80
2023-01-18T23:34:20.592Z,22.60
2023-01-18T23:36:51.246Z,22.80
2023-01-18T23:39:38.300Z,22.20
2023-01-18T23:42:25.036Z,18.20
2023-01-18T23:45:11.718Z,24.00
2023-01-18T23:47:59.411Z,23.70
2023-01-18T23:50:46.513Z,22.70
2023-01-18T23:53:33.275Z,19.10
2023-01-18T23:56:01.266Z,18.40
2023-01-18T23:58:29.453Z,16.90
